Pinckney, MI

03:00 EDT le 24 octobre 2014 (GMT -0400)
Ann Arbor Municipal | Change Station
CLOSE
Current Station
Aéroport
Location: Ann Arbor,
Altitude: 837 ft
Stations météo à proximité

Alt. 837 ft 42.22 °N, 83.74 °W | Updated 7 minutes ago

Ciel dégagé
Ciel dégagé
33 ° F
Paraît 33 ° F
N
0
Vent Variable Vent de Nord

Aujourd'hui
Haut(e) -- | Bas -- ° F
--% Risque de précip.
Hier
Haut(e) -- | Bas -- ° F
Precip. -- pouce
7:59 AM 6:39 PM
Nouvelle lune, 0% visible
Pression 30.10 pouce
Visibilité 9.0 Miles terrestres
Nuages Ciel dégagé
Point de rosée 31 ° F
Humidité 92%
Précipitations 0.00 pouce
Profondeur de la couche neigeuse Non disponible.
UV 0 sur 12
Pollen .60 sur 12
PM2.5 Moyen
Flu Activity Sporadic
METAR KARB 240653Z AUTO 00000KT 9SM CLR 01/M01 A3009 RMK AO2 SLP193 I1001 T00061006

More Conditions Fewer Conditions

Pression 30.10 pouce
Visibilité 9.0 Miles terrestres
Nuages Ciel dégagé
Point de rosée 31 ° F
Humidité 92%
Précipitations 0.00 pouce
Profondeur de la couche neigeuse Non disponible.
UV 0 sur 12
Pollen .60 sur 12
PM2.5 Moyen
Flu Activity Sporadic
METAR KARB 240653Z AUTO 00000KT 9SM CLR 01/M01 A3009 RMK AO2 SLP193 I1001 T00061006

More Conditions Fewer Conditions

10-Day Weather Forecast

Almanac

Astronomie

Oct. 24, 2014 Lever Coucher
Temps réel 07:59 EDT 18:39 EDT
Crépuscule civil 07:30 EDT 19:08 EDT
Crépuscule nautique 06:57 EDT 19:41 EDT
Crépuscule astronomique 06:25 EDT 20:13 EDT
Lune 08:38 EDT 19:18 EDT
Durée de lumière visible 11h 37m
Longueur du jour
10h 40m
Tomorrow will be 2m 40s shorter.
Nouvelle lune, 0% of the Moon is Illuminated
Aujourd'hui
Nouvelle lune
Oct 30
Premier quartier
Nov 6
Pleine lune
Nov 14
Dernier quartier
Nov 22
Nouveau

Extrêmes aujourd'hui

State Highs State Lows

Community

WunderPhotos

Upload Photos

1,764,510 Photos téléchargées !

WunderBlogs® & News

Nearby

Qualité de l'air

  Qualité de l'air Indice de la qualité de l'air Polluant
Hier Bon
PM2.5
Actuel Moyen
PM2.5
vendredi Moyen
PM2.5
samedi Bon
PM2.5
dimanche Bon
PM2.5
lundi Moyen
PM2.5

Épaisseur de neige

Station Depth Altitude
Pas de nouvelles chutes de neige

Activité sismique

Ville Distance Mag. Time & Date
No recent earthquake activity has been reported nearby.
Minimum magnitude displayed is 2.5.

Températures des eaux côtières

Lieu Température
Aucun rapport de station

Stations météo à proximité